Flight Track Log - Related Links

Times and Time Zones

All times are in EDT time to prevent confusion due to time zone crossing. See the SKW5580 flight status page for this flight to view local times or setup timezone preferences in your user account.

Time Position Orientation Groundspeed Altitude Reporting Facility
EDT Latitude Longitude Course Direction KTS MPH feet Rate Location/Type
Sun 07:10:59 AM 44.8667 -93.1667 126° Southeast 164 189 2,500  Level Minneapolis TRACON
Sun 07:11:30 AM 44.8556 -93.1506 134° Southeast 162 186 3,100 1,385 Climbing Minneapolis Center
Sun 07:12:30 AM 44.8153 -93.0797 129° Southeast 250 288 4,600 2,450 Climbing Minneapolis Center
Sun 07:13:00 AM 44.6856 -92.8301 153° Southeast  Level Estimated
Sun 07:13:30 AM 44.7353 -93.0569 169° South 284 327 8,000  Level Minneapolis Center
Sun 07:14:00 AM 44.6198 -92.7001 157° South  Level Estimated
Sun 07:14:30 AM 44.6531 -93.0350 169° South 295 339 10,800  Level Minneapolis Center
Sun 07:15:00 AM 44.5539 -92.5704 125° Southeast  Level Estimated
Sun 07:15:31 AM 44.5533 -93.0058 168° South 365 420 12,700  Level Minneapolis Center
Sun 07:16:00 AM 44.4970 -92.4588 126° Southeast  Level Estimated
Sun 07:16:31 AM 44.4519 -92.9744 168° South 370 426 15,100  Level Minneapolis Center
Sun 07:17:31 AM 44.3611 -92.8850 145° Southeast 394 453 17,600 2,281 Climbing Minneapolis Center
Sun 07:18:32 AM 44.2717 -92.7892 142° Southeast 409 471 19,700 1,934 Climbing Minneapolis Center
Sun 07:19:32 AM 44.1789 -92.6908 143° Southeast 424 488 21,500 1,750 Climbing Minneapolis Center
Sun 07:20:32 AM 44.0828 -92.5889 143° Southeast 439 505 23,200 1,587 Climbing Minneapolis Center
Sun 07:21:33 AM 43.9908 -92.4742 138° Southeast 454 522 24,700 1,388 Climbing Minneapolis Center
Sun 07:22:33 AM 43.8992 -92.3542 137° Southeast 456 525 26,000 1,350 Climbing Minneapolis Center
Sun 07:23:33 AM 43.8042 -92.2308 137° Southeast 466 536 27,400 1,240 Climbing Minneapolis Center
Sun 07:24:34 AM 43.7117 -92.1111 137° Southeast 472 543 28,500 793 Climbing Minneapolis Center
Sun 07:25:34 AM 43.6142 -91.9856 137° Southeast 488 562 29,000 166 Climbing Minneapolis Center
Sun 07:27:35 AM 43.4125 -91.7267 137° Southeast 503 579 29,000  Level Minneapolis Center
Sun 07:28:35 AM 43.2903 -91.5722 137° Southeast 500 575 29,000  Level Minneapolis Center
Sun 07:29:35 AM 43.1878 -91.4428 137° Southeast 495 570 29,000  Level Minneapolis Center
Sun 07:30:36 AM 43.0828 -91.3100 137° Southeast 513 590 29,000  Level Minneapolis Center
Sun 07:31:36 AM 43.0086 -91.1481 122° Southeast 497 572 29,000  Level Minneapolis Center
Sun 07:32:30 AM 42.9597 -91.0083 116° Southeast 510 587 29,000  Level Chicago Center
Sun 07:33:31 AM 42.8983 -90.8342 116° Southeast 508 585 29,000  Level Chicago Center
Sun 07:34:32 AM 42.8369 -90.6597 116° Southeast 513 590 29,000  Level Chicago Center
Sun 07:35:33 AM 42.7756 -90.4867 116° Southeast 510 587 29,000 -443 Level Chicago Center
Sun 07:36:34 AM 42.7156 -90.3186 116° Southeast 484 557 28,100 -545 Descending Chicago Center
Sun 07:37:34 AM 42.6572 -90.1575 116° Southeast 479 551 27,900 -496 Descending Chicago Center
Sun 07:38:35 AM 42.5986 -89.9958 116° Southeast 481 554 27,100 -787 Descending Chicago Center
Sun 07:39:36 AM 42.5356 -89.8228 116° Southeast 463 533 26,300 -1,279 Descending Chicago Center
Sun 07:40:37 AM 42.5164 -89.6539 99° East 460 529 24,500 -2,016 Descending Chicago Center
Sun 07:41:38 AM 42.5139 -89.4861 91° East 446 513 22,200 -2,361 Descending Chicago Center
Sun 07:42:39 AM 42.5108 -89.2894 91° East 432 497 19,700 -2,164 Descending Chicago Center
Sun 07:43:40 AM 42.5081 -89.1311 91° East 419 482 17,800 -1,967 Descending Chicago Center
Sun 07:44:41 AM 42.5075 -88.9794 90° East 398 458 15,700 -2,115 Descending Chicago Center
Sun 07:45:42 AM 42.4775 -88.8378 106° East 390 449 13,500 -1,967 Descending Chicago Center
Sun 07:46:43 AM 42.4383 -88.7081 112° Southeast 363 418 11,700 -1,230 Descending Chicago Center
Sun 07:47:44 AM 42.4039 -88.5947 112° Southeast 297 342 11,000 -1,230 Descending Chicago Center
Sun 07:48:45 AM 42.3728 -88.4928 112° Southeast 294 338 9,200 -1,770 Descending Chicago Center
Sun 07:49:46 AM 42.3169 -88.4106 133° Southeast 296 341 7,400 -1,131 Descending Chicago Center
Sun 07:50:47 AM 42.2450 -88.4078 178° South 242 278 6,900 -689 Descending Chicago Center
Sun 07:51:48 AM 42.1789 -88.4075 180° South 239 275 6,000 -590 Descending Chicago Center
Sun 07:52:49 AM 42.1206 -88.4581 213° Southwest 233 268 5,700 -492 Descending Chicago Center
Sun 07:53:50 AM 42.0797 -88.5000 217° Southwest 214 246 5,000 -836 Descending Chicago Center
Sun 07:54:51 AM 42.0233 -88.5172 193° South 199 229 4,000 -492 Descending Chicago Center
Sun 07:55:52 AM 42.0017 -88.4614 118° Southeast 169 194 4,000  Level Chicago Center
Sun 07:56:53 AM 42.0011 -88.4011 91° East 162 186 4,000  Level Chicago Center
Sun 07:57:54 AM 42.0017 -88.3350 89° East 162 186 4,000  Level Chicago Center
Sun 07:58:55 AM 42.0017 -88.2742 90° East 162 186 4,000  Level Chicago Center
Sun 07:59:56 AM 42.0014 -88.2081 90° East 175 201 4,000 -98 Level Chicago Center
Sun 08:00:57 AM 42.0022 -88.1444 89° East 170 196 3,800 -492 Descending Chicago Center
Sun 08:01:58 AM 42.0014 -88.0844 91° East 166 191 3,000 -836 Descending Chicago Center
Sun 08:02:59 AM 42.0017 -88.0239 90° East 153 176 2,100 -780 Descending Chicago Center
Sun 08:04:01 AM 42.0022 -87.9758 89° East 133 153 1,400 -634 Descending Chicago Center
Sun 08:05:02 AM 42.0019 -87.9250 90° East 133 153 800 -590 Descending Chicago Center

Login

Don't have an account? Register now (free) for customized features, flight alerts, and more!